createdAt,value
2022-08-20T00:02:54.392Z,17.20
2022-08-20T00:07:59.577Z,17.10
2022-08-20T00:13:03.475Z,14.10
2022-08-20T00:18:07.736Z,17.10
2022-08-20T00:23:12.871Z,17.10
2022-08-20T00:28:17.469Z,17.10
2022-08-20T00:33:24.699Z,17.10
2022-08-20T00:38:29.476Z,17.00
2022-08-20T00:43:37.863Z,17.00
2022-08-20T00:48:45.493Z,16.90
2022-08-20T00:53:50.592Z,16.90
2022-08-20T00:58:55.039Z,16.90
2022-08-20T01:03:58.385Z,16.80
2022-08-20T01:09:03.220Z,16.90
2022-08-20T01:14:21.870Z,16.90
2022-08-20T01:19:30.901Z,16.90
2022-08-20T01:24:40.245Z,20.90
2022-08-20T01:29:45.251Z,16.90
2022-08-20T01:34:48.639Z,16.80
2022-08-20T01:39:52.017Z,16.90
2022-08-20T01:44:56.984Z,16.80
2022-08-20T01:50:04.390Z,16.80
2022-08-20T01:55:08.870Z,16.80
2022-08-20T02:00:20.082Z,16.70
2022-08-20T02:05:30.696Z,16.70
2022-08-20T02:10:35.602Z,16.60
2022-08-20T02:15:43.205Z,16.60
2022-08-20T02:20:47.606Z,16.70
2022-08-20T02:25:51.509Z,16.60
2022-08-20T02:30:56.523Z,16.60
2022-08-20T02:35:59.835Z,16.60
2022-08-20T02:41:03.543Z,16.60
2022-08-20T02:46:09.238Z,16.60
2022-08-20T02:51:12.708Z,16.60
2022-08-20T02:56:16.565Z,16.60
2022-08-20T03:01:21.350Z,16.60
2022-08-20T03:06:24.778Z,16.60
2022-08-20T03:11:28.131Z,16.70
2022-08-20T03:16:33.699Z,16.70
2022-08-20T03:21:37.294Z,16.60
2022-08-20T03:26:40.819Z,16.60
2022-08-20T03:31:45.612Z,16.60
2022-08-20T03:36:48.913Z,16.70
2022-08-20T03:41:52.230Z,16.70
2022-08-20T03:46:57.004Z,16.70
2022-08-20T03:52:01.435Z,16.80
2022-08-20T03:57:13.006Z,16.80
2022-08-20T04:02:17.842Z,16.70
2022-08-20T04:07:27.537Z,16.70
2022-08-20T04:12:30.834Z,16.60
2022-08-20T04:17:35.537Z,16.60
2022-08-20T04:22:40.278Z,16.60
2022-08-20T04:27:45.551Z,16.50
2022-08-20T04:32:50.738Z,16.50
2022-08-20T04:38:00.407Z,16.50
2022-08-20T04:43:05.223Z,16.60
2022-08-20T04:48:14.697Z,16.60
2022-08-20T04:53:25.684Z,16.50
2022-08-20T04:58:33.737Z,16.60
2022-08-20T05:03:40.126Z,16.50
2022-08-20T05:08:43.464Z,16.50
2022-08-20T05:13:46.759Z,16.50
2022-08-20T05:18:52.168Z,16.50
2022-08-20T05:23:56.208Z,16.50
2022-08-20T05:28:59.673Z,16.60
2022-08-20T05:34:10.071Z,16.60
2022-08-20T05:39:15.540Z,16.70
2022-08-20T05:44:20.021Z,16.70
2022-08-20T05:49:24.716Z,16.60
2022-08-20T05:54:28.093Z,16.60
2022-08-20T05:59:31.494Z,16.60
2022-08-20T06:04:36.203Z,16.70
2022-08-20T06:09:43.525Z,16.60
2022-08-20T06:14:48.628Z,16.70
2022-08-20T06:19:53.307Z,16.80
2022-08-20T06:24:57.063Z,16.80
2022-08-20T06:30:00.400Z,17.00
2022-08-20T06:35:07.943Z,17.10
2022-08-20T06:40:13.787Z,17.30
2022-08-20T06:45:19.005Z,17.30
2022-08-20T06:50:26.807Z,17.40
2022-08-20T06:55:30.112Z,17.40
2022-08-20T07:00:34.557Z,17.40
2022-08-20T07:05:43.001Z,17.40
2022-08-20T07:10:46.675Z,17.40
2022-08-20T07:15:50.593Z,17.40
2022-08-20T07:20:59.488Z,17.40
2022-08-20T07:26:03.492Z,17.40
2022-08-20T07:31:24.418Z,17.40
2022-08-20T07:36:29.523Z,17.50
2022-08-20T07:41:32.979Z,17.60
2022-08-20T07:46:36.322Z,17.50
2022-08-20T07:51:41.034Z,17.60
2022-08-20T07:56:44.448Z,17.50
2022-08-20T08:01:48.046Z,17.70
2022-08-20T08:06:53.385Z,17.70
2022-08-20T08:11:59.209Z,17.90
2022-08-20T08:17:05.855Z,17.80
2022-08-20T08:22:14.374Z,17.90
2022-08-20T08:27:18.455Z,17.90
2022-08-20T08:32:21.769Z,18.10
2022-08-20T08:37:30.509Z,18.20
2022-08-20T08:42:43.315Z,18.20
2022-08-20T08:47:46.986Z,18.40
2022-08-20T08:52:55.344Z,18.50
2022-08-20T08:58:01.024Z,18.50
2022-08-20T09:03:13.598Z,18.50
2022-08-20T09:08:24.549Z,18.60
2022-08-20T09:13:27.923Z,18.50
2022-08-20T09:18:31.275Z,18.60
2022-08-20T09:23:36.513Z,18.50
2022-08-20T09:28:39.878Z,18.50
2022-08-20T09:33:43.409Z,18.50
2022-08-20T09:38:51.309Z,18.60
2022-08-20T09:43:54.683Z,18.40
2022-08-20T09:48:58.056Z,18.60
2022-08-20T09:54:02.952Z,18.10
2022-08-20T09:59:06.647Z,18.40
2022-08-20T10:04:09.997Z,18.30
2022-08-20T10:09:15.152Z,18.30
2022-08-20T10:14:18.564Z,18.30
2022-08-20T10:19:22.993Z,18.40
2022-08-20T10:24:29.883Z,18.30
2022-08-20T10:29:33.762Z,18.20
2022-08-20T10:34:37.066Z,18.10
2022-08-20T10:39:41.987Z,18.00
2022-08-20T10:44:45.673Z,18.50
2022-08-20T10:49:49.770Z,17.90
2022-08-20T10:54:55.127Z,17.80
2022-08-20T11:00:00.835Z,17.80
2022-08-20T11:05:06.478Z,17.80
2022-08-20T11:10:13.966Z,17.80
2022-08-20T11:15:17.606Z,17.80
2022-08-20T11:20:23.775Z,17.80
2022-08-20T11:25:29.355Z,17.80
2022-08-20T11:30:35.661Z,18.90
2022-08-20T11:35:43.458Z,17.70
2022-08-20T11:40:54.378Z,17.80
2022-08-20T11:45:58.864Z,17.80
2022-08-20T11:51:02.290Z,17.80
2022-08-20T11:56:07.562Z,17.80
2022-08-20T12:01:17.205Z,17.90
2022-08-20T12:06:20.590Z,17.90
2022-08-20T12:11:25.365Z,17.80
2022-08-20T12:16:28.773Z,17.80
2022-08-20T12:21:32.589Z,17.70
2022-08-20T12:26:37.426Z,17.70
2022-08-20T12:31:41.455Z,17.80
2022-08-20T12:36:44.739Z,18.00
2022-08-20T12:41:49.540Z,18.00
2022-08-20T12:46:53.158Z,18.30
2022-08-20T12:51:56.522Z,18.10
2022-08-20T12:57:01.339Z,18.20
2022-08-20T13:02:13.997Z,18.20
2022-08-20T13:07:22.268Z,18.30
2022-08-20T13:12:27.121Z,18.50
2022-08-20T13:17:38.188Z,18.50
2022-08-20T13:22:42.836Z,18.40
2022-08-20T13:27:47.758Z,18.40
2022-08-20T13:32:51.092Z,18.50
2022-08-20T13:37:54.476Z,18.40
2022-08-20T13:43:03.209Z,18.60
2022-08-20T13:48:14.791Z,18.60
2022-08-20T13:53:18.817Z,20.00
2022-08-20T13:58:24.148Z,18.50
2022-08-20T14:03:27.452Z,18.60
2022-08-20T14:08:31.394Z,18.70
2022-08-20T14:13:36.153Z,21.40
2022-08-20T14:18:39.506Z,19.00
2022-08-20T14:23:43.980Z,19.00
2022-08-20T14:28:48.778Z,19.00
2022-08-20T14:33:52.175Z,19.00
2022-08-20T14:38:56.109Z,19.10
2022-08-20T14:44:00.944Z,19.10
2022-08-20T14:49:08.657Z,19.30
2022-08-20T14:54:11.961Z,19.10
2022-08-20T14:59:17.165Z,19.30
2022-08-20T15:04:20.459Z,19.40
2022-08-20T15:09:23.749Z,19.60
2022-08-20T15:14:29.180Z,19.80
2022-08-20T15:19:33.272Z,19.90
2022-08-20T15:24:36.588Z,19.70
2022-08-20T15:29:41.446Z,19.70
2022-08-20T15:34:44.839Z,19.60
2022-08-20T15:39:48.519Z,19.50
2022-08-20T15:44:53.356Z,19.40
2022-08-20T15:50:02.550Z,19.30
2022-08-20T15:55:07.019Z,19.10
2022-08-20T16:00:16.957Z,19.20
2022-08-20T16:05:27.317Z,21.00
2022-08-20T16:10:40.086Z,19.10
2022-08-20T16:15:49.413Z,19.00
2022-08-20T16:20:56.914Z,19.00
2022-08-20T16:26:17.488Z,19.00
2022-08-20T16:31:26.672Z,19.00
2022-08-20T16:36:36.970Z,19.00
2022-08-20T16:41:44.381Z,19.20
2022-08-20T16:46:55.545Z,19.20
2022-08-20T16:52:00.614Z,19.10
2022-08-20T16:57:06.625Z,19.10
2022-08-20T17:02:12.783Z,19.00
2022-08-20T17:07:16.612Z,18.80
2022-08-20T17:12:24.033Z,18.70
2022-08-20T17:17:31.046Z,18.40
2022-08-20T17:22:42.453Z,18.30
2022-08-20T17:27:46.541Z,18.20
2022-08-20T17:32:59.136Z,18.10
2022-08-20T17:38:05.803Z,18.00
2022-08-20T17:43:11.496Z,17.90
2022-08-20T17:48:22.887Z,17.70
2022-08-20T17:53:29.777Z,17.80
2022-08-20T17:58:40.918Z,17.90
2022-08-20T18:03:59.487Z,17.80
2022-08-20T18:09:05.910Z,17.70
2022-08-20T18:14:25.361Z,17.70
2022-08-20T18:19:47.901Z,17.60
2022-08-20T18:24:58.007Z,17.60
2022-08-20T18:30:01.835Z,17.60
2022-08-20T18:35:12.615Z,17.60
2022-08-20T18:40:20.375Z,17.60
2022-08-20T18:45:31.329Z,17.60
2022-08-20T18:50:47.282Z,17.60
2022-08-20T18:56:03.154Z,17.50
2022-08-20T19:01:13.777Z,17.50
2022-08-20T19:06:28.235Z,17.40
2022-08-20T19:12:12.704Z,17.40
2022-08-20T19:17:20.867Z,21.80
2022-08-20T19:22:25.790Z,17.40
2022-08-20T19:27:30.421Z,15.40
2022-08-20T19:32:34.450Z,17.40
2022-08-20T19:37:51.442Z,17.30
2022-08-20T19:42:55.841Z,18.20
2022-08-20T19:48:17.946Z,17.30
2022-08-20T19:53:33.684Z,17.20
2022-08-20T19:58:37.588Z,17.20
2022-08-20T20:03:40.924Z,17.20
2022-08-20T20:08:52.844Z,17.20
2022-08-20T20:14:01.008Z,17.10
2022-08-20T20:19:35.234Z,17.10
2022-08-20T20:24:42.275Z,17.00
2022-08-20T20:29:45.788Z,17.10
2022-08-20T20:34:54.856Z,17.00
2022-08-20T20:40:07.228Z,17.00
2022-08-20T20:45:22.341Z,17.00
2022-08-20T20:50:31.113Z,17.00
2022-08-20T20:55:38.719Z,17.00
2022-08-20T21:00:42.001Z,16.90
2022-08-20T21:05:45.692Z,16.90
2022-08-20T21:10:50.370Z,17.00
2022-08-20T21:15:53.833Z,17.00
2022-08-20T21:20:57.153Z,17.00
2022-08-20T21:26:02.556Z,17.00
2022-08-20T21:31:06.180Z,17.00
2022-08-20T21:36:09.595Z,13.90
2022-08-20T21:41:15.150Z,16.90
2022-08-20T21:46:25.049Z,16.90
2022-08-20T21:51:28.567Z,17.00
2022-08-20T21:56:33.995Z,17.00
2022-08-20T22:01:38.354Z,17.10
2022-08-20T22:06:41.920Z,17.10
2022-08-20T22:11:49.586Z,17.10
2022-08-20T22:16:56.919Z,17.20
2022-08-20T22:22:00.338Z,17.30
2022-08-20T22:27:05.241Z,17.30
2022-08-20T22:32:08.759Z,17.30
2022-08-20T22:37:12.617Z,17.40
2022-08-20T22:42:17.315Z,17.30
2022-08-20T22:47:27.329Z,17.40
2022-08-20T22:52:31.224Z,17.40
2022-08-20T22:57:36.160Z,17.40
2022-08-20T23:02:40.751Z,17.30
2022-08-20T23:07:44.275Z,17.40
2022-08-20T23:12:49.031Z,17.40
2022-08-20T23:17:53.208Z,18.90
2022-08-20T23:22:56.773Z,17.40
2022-08-20T23:28:03.654Z,17.40
2022-08-20T23:33:07.690Z,17.40
2022-08-20T23:38:11.365Z,17.40
2022-08-20T23:43:16.113Z,17.40
2022-08-20T23:48:19.470Z,17.50
2022-08-20T23:53:22.840Z,17.50
2022-08-20T23:58:27.577Z,17.40
